The Eastern Iowa Airport
KCID : now visible

Airfield :











YOU CAN JOIN US ON...

 
LOGIN :

Register | Disclaimer

   EN    FR    IT 

 









Legend :    VFR   Marginal VFR   IFR   Intensive IFR   Very Intensive IFR
Visi :
Ceiling :
>= 8 km
>= 3000ft
5 to 8 km
1000 to 3000 ft
1500m to 5 km
500 to 1000 ft
800 to 1500m
200 to 500 ft
< 800m
< 200 ft
Symbols :   Thunderstorms  Fog  Heavy snow  Heavy precipitations  Wind > 20 kt






- Airport Elevation : 869 ft
- IATA code : CID


KCID - The Eastern Iowa

CURRENT METAR :
  • 071452Z 03011KT 10SM CLR 08/01 A3049 RMK AO2 SLP328 T00780011 51021

EXPIRED METARs :
  • 071352Z 02011KT 10SM CLR 06/02 A3048 RMK AO2 SLP325 T00610017
  • 071252Z 02008KT 10SM CLR 04/02 A3045 RMK AO2 SLP316 T00440017

TAF KCID
Valid from the 07 at 12:00 until the 08 at 12:00 UTC


071127Z 0712/0812 01009KT P6SM BKN120
FM071800 36012KT P6SM BKN200
FM080400 VRB04KT P6SM SCT030
KZAU FIR / North America



MET'MAP, your aeronautical weather chart ! - Copyright ORBIFLY December 2007 - Disclaimer

ORBIFLY MET'MAP TEAM :

Programming & Development : Alexandra Zaïnal
Original concept : Baudouin d'Aumeries
Technical & hardware support : Manuel Goepfert
Assistance : Marc-Olivier Méhu




SOURCES & CREDITS :

   NOAA       Earth
Advisory